Flight Track Log - Related Links

Times and Time Zones

All times are in EDT time to prevent confusion due to time zone crossing. See the AAL297 flight status page for this flight to view local times or setup timezone preferences in your user account.

Time Position Orientation Groundspeed Altitude Reporting Facility
EDT Latitude Longitude Course Direction KTS MPH feet Rate Location/Type
09:24PM 33.9320 -118.4470 264° West 191 220 1,700  Level FlightAware
09:24PM 33.9290 -118.4810 264° West 229 264 2,400 1,750 Climbing FlightAware
09:25PM 33.9230 -118.5390 263° West 261 300 3,800 1,941 Climbing FlightAware
09:26PM 33.9180 -118.5830 262° West 269 310 4,600 2,069 Climbing FlightAware
09:26PM 33.9140 -118.6280 264° West 271 312 5,800 2,250 Climbing FlightAware
09:26PM 33.9110 -118.6660 265° West 274 315 6,700 2,100 Climbing FlightAware
09:27PM 33.9090 -118.6870 263° West 280 322 7,200 2,182 Climbing FlightAware
09:27PM 33.9060 -118.7350 266° West 282 325 8,300 2,276 Climbing FlightAware
09:28PM 33.9020 -118.7770 263° West 281 323 9,400 1,971 Climbing FlightAware
09:28PM 33.8950 -118.8430 263° West 294 338 10,600 1,373 Climbing FlightAware
09:29PM 33.8880 -118.9130 263° West 328 377 11,300 975 Climbing FlightAware
09:30PM 33.8810 -118.9890 264° West 364 419 11,900 1,663 Climbing FlightAware
09:30PM 33.8710 -119.0810 263° West 374 430 13,600 2,182 Climbing FlightAware
09:31PM 33.8610 -119.1720 262° West 387 445 15,100 2,023 Climbing FlightAware
09:32PM 33.8510 -119.2650 263° West 400 460 16,500 2,000 Climbing FlightAware
09:33PM 33.8430 -119.3580 264° West 406 467 17,900 2,071 Climbing FlightAware
09:33PM 33.8340 -119.4550 264° West 411 473 19,400 1,976 Climbing FlightAware
09:34PM 33.8250 -119.5480 263° West 418 481 20,700 1,929 Climbing FlightAware
09:35PM 33.8140 -119.6470 262° West 425 489 22,100 1,899 Climbing FlightAware
09:35PM 33.8050 -119.7350 263° West 429 494 23,200 1,756 Climbing FlightAware
09:36PM 33.7940 -119.8410 263° West 436 502 24,500 1,800 Climbing FlightAware
09:37PM 33.7820 -119.9530 263° West 437 503 25,900 1,613 Climbing FlightAware
09:38PM 33.7700 -120.0650 263° West 442 509 27,000 688 Climbing FlightAware
09:38PM 33.7580 -120.1660 262° West 442 509 27,000 968 Level FlightAware
09:39PM 33.7460 -120.2790 263° West 444 511 28,500 2,850 Climbing FlightAware
09:40PM 33.7360 -120.3790 263° West 434 499 30,800 1,909 Climbing FlightAware
09:41PM 33.7260 -120.4680 262° West 431 496 31,300 303 Climbing FlightAware
09:41PM 33.7150 -120.5630 262° West 431 496 31,300  Level FlightAware
09:42PM 33.7030 -120.6600 262° West 431 496 31,300  Level FlightAware
09:43PM 33.6950 -120.7330 263° West 431 496 31,300  Level FlightAware
09:43PM 33.6860 -120.8090 262° West 431 496 31,300  Level FlightAware
09:44PM 33.6740 -120.9080 262° West 431 496 31,300  Level FlightAware
09:45PM 33.6570 -121.0510 262° West 431 496 31,300  Level FlightAware
09:46PM 33.6490 -121.1200 262° West 431 496 31,300  Level FlightAware
09:47PM 33.6380 -121.2210 263° West 431 496 31,300  Level FlightAware
09:48PM 33.6280 -121.3050 262° West 431 496 31,300  Level FlightAware
09:48PM 33.6190 -121.3780 262° West 431 496 31,300  Level FlightAware
09:49PM 33.6080 -121.4770 262° West 431 496 31,300  Level FlightAware
09:50PM 33.5990 -121.5510 262° West 431 496 31,300 5,262 Level FlightAware
09:50PM 33.5897 -121.7111 262° West 381 438 37,000 3,800 Climbing Los Angeles Center
09:51PM 33.5733 -121.8347 261° West 381 438 37,000  Level Los Angeles Center
09:52PM 33.5594 -121.9639 263° West 387 445 37,000  Level Los Angeles Center
09:53PM 33.5447 -122.0922 262° West 388 447 37,000  Level Los Angeles Center
09:54PM 33.5250 -122.2469 261° West 391 450 37,000  Level Los Angeles Center
09:55PM 33.5078 -122.3725 261° West 386 444 37,000  Level Los Angeles Center
09:56PM 33.4917 -122.5022 262° West 388 447 37,000  Level Los Angeles Center
09:57PM 33.4747 -122.6319 261° West 394 453 37,000  Level Los Angeles Center
09:59PM 33.4382 -122.7998 255° West  Level FlightAware Approximate
10:06PM 33.2363 -123.7265 256° West  Level FlightAware Approximate
10:07PM 33.2080 -123.8588 256° West  Level FlightAware Approximate
10:08PM 33.1796 -123.9910 256° West  Level FlightAware Approximate
10:09PM 33.1510 -124.1232 256° West  Level FlightAware Approximate
10:10PM 33.1223 -124.2552 255° West  Level FlightAware Approximate
10:11PM 33.0934 -124.3872 255° West  Level FlightAware Approximate
10:12PM 33.0667 -124.5165 270° West  Level FlightAware Approximate
10:13PM 33.0372 -124.6482 255° West  Level FlightAware Approximate
10:14PM 33.0076 -124.7798 255° West  Level FlightAware Approximate
10:14PM 33.0667 -124.5167 255° West 405 466 37,000  Level Oakland Oceanic (ODAPS)
10:15PM 32.9779 -124.9113 255° West  Level FlightAware Approximate
10:16PM 32.9480 -125.0428 255° West  Level FlightAware Approximate
10:17PM 32.9185 -125.1719 255° West  Level FlightAware Approximate
10:18PM 32.8889 -125.3009 255° West  Level FlightAware Approximate
10:19PM 32.8591 -125.4298 255° West  Level FlightAware Approximate
10:20PM 32.8292 -125.5586 255° West  Level FlightAware Approximate
10:21PM 32.8012 -125.6798 254° West 405 466 37,000  Level FlightAware Transoceanic
10:22PM 32.7710 -125.8086 254° West 405 466 37,000  Level FlightAware Transoceanic
10:23PM 32.7407 -125.9373 254° West 405 466 37,000  Level FlightAware Transoceanic
10:24PM 32.7103 -126.0659 254° West 405 466 37,000  Level FlightAware Transoceanic
10:25PM 32.6797 -126.1945 254° West 405 466 37,000  Level FlightAware Transoceanic
10:26PM 32.6490 -126.3229 254° West 405 466 37,000  Level FlightAware Transoceanic
10:27PM 32.6182 -126.4513 254° West 405 466 37,000  Level FlightAware Transoceanic
10:28PM 32.5872 -126.5796 254° West 405 466 37,000  Level FlightAware Transoceanic
10:29PM 32.5562 -126.7078 254° West 405 466 37,000  Level FlightAware Transoceanic
10:30PM 32.5249 -126.8359 254° West 405 466 37,000  Level FlightAware Transoceanic
10:31PM 32.4936 -126.9639 254° West 405 466 37,000  Level FlightAware Transoceanic
10:32PM 32.4621 -127.0918 254° West 405 466 37,000  Level FlightAware Transoceanic
10:33PM 32.4305 -127.2196 254° West 405 466 37,000  Level FlightAware Transoceanic
10:34PM 32.3988 -127.3474 254° West 405 466 37,000  Level FlightAware Transoceanic
10:35PM 32.3669 -127.4750 254° West 405 466 37,000  Level FlightAware Transoceanic
10:36PM 32.3350 -127.6026 253° West 405 466 37,000  Level FlightAware Transoceanic
10:37PM 32.3028 -127.7300 253° West 405 466 37,000  Level FlightAware Transoceanic
10:38PM 32.2706 -127.8574 253° West 405 466 37,000  Level FlightAware Transoceanic
10:39PM 32.2382 -127.9847 253° West 405 466 37,000  Level FlightAware Transoceanic
10:40PM 32.2057 -128.1119 253° West 405 466 37,000  Level FlightAware Transoceanic
10:41PM 32.1731 -128.2390 253° West 405 466 37,000  Level FlightAware Transoceanic
10:42PM 32.1404 -128.3660 253° West 405 466 37,000  Level FlightAware Transoceanic
10:43PM 32.1075 -128.4930 253° West 405 466 37,000  Level FlightAware Transoceanic
10:44PM 32.0745 -128.6198 253° West 405 466 37,000  Level FlightAware Transoceanic
10:45PM 32.0413 -128.7465 253° West 405 466 37,000  Level FlightAware Transoceanic
10:46PM 32.0081 -128.8732 253° West 405 466 37,000  Level FlightAware Transoceanic
10:47PM 31.9747 -128.9997 253° West 405 466 37,000  Level FlightAware Transoceanic
10:48PM 31.9412 -129.1262 253° West 405 466 37,000  Level FlightAware Transoceanic
10:49PM 31.9076 -129.2526 253° West 405 466 37,000  Level FlightAware Transoceanic
10:50PM 31.8738 -129.3789 252° West 405 466 37,000  Level FlightAware Transoceanic
10:51PM 31.8399 -129.5051 252° West 405 466 37,000  Level FlightAware Transoceanic
10:52PM 31.8059 -129.6311 252° West 405 466 37,000  Level FlightAware Transoceanic
10:53PM 31.7718 -129.7571 252° West 405 466 37,000  Level FlightAware Transoceanic
10:54PM 31.7375 -129.8831 252° West 405 466 37,000  Level FlightAware Transoceanic
10:55PM 31.7031 -130.0089 252° West 405 466 37,000  Level FlightAware Transoceanic
10:56PM 31.6686 -130.1346 252° West 405 466 37,000  Level FlightAware Transoceanic
10:57PM 31.6340 -130.2602 252° West 405 466 37,000  Level FlightAware Transoceanic
10:58PM 31.5993 -130.3858 252° West 405 466 37,000  Level FlightAware Transoceanic
10:59PM 31.5644 -130.5112 252° West 405 466 37,000  Level FlightAware Transoceanic
11:00PM 31.5294 -130.6365 252° West 405 466 37,000  Level FlightAware Transoceanic
11:01PM 31.4943 -130.7618 252° West 405 466 37,000  Level FlightAware Transoceanic
11:02PM 31.4590 -130.8869 252° West 405 466 37,000  Level FlightAware Transoceanic
11:03PM 31.4237 -131.0120 252° West 405 466 37,000  Level FlightAware Transoceanic
11:04PM 31.3882 -131.1370 252° West 405 466 37,000  Level FlightAware Transoceanic
11:05PM 31.3526 -131.2619 252° West 405 466 37,000  Level FlightAware Transoceanic
11:06PM 31.3169 -131.3866 251° West 405 466 37,000  Level FlightAware Transoceanic
11:07PM 31.2810 -131.5113 251° West 405 466 37,000  Level FlightAware Transoceanic
11:08PM 31.2451 -131.6359 251° West 405 466 37,000  Level FlightAware Transoceanic
11:09PM 31.2090 -131.7604 251° West 405 466 37,000  Level FlightAware Transoceanic
11:10PM 31.1728 -131.8848 251° West 405 466 37,000  Level FlightAware Transoceanic
11:11PM 31.1364 -132.0091 251° West 405 466 37,000  Level FlightAware Transoceanic
11:12PM 31.1000 -132.1333 251° West 405 466 37,000  Level FlightAware Transoceanic
11:12PM 31.1000 -132.1333 251° West 413 475 37,000  Level Oakland Oceanic (ODAPS)
11:13PM 31.0621 -132.2622 251° West 405 466 37,000  Level FlightAware Transoceanic
11:14PM 31.0241 -132.3909 251° West 405 466 37,000  Level FlightAware Transoceanic
11:15PM 30.9859 -132.5195 251° West 405 466 37,000  Level FlightAware Transoceanic
11:16PM 30.9477 -132.6480 251° West 405 466 37,000  Level FlightAware Transoceanic
11:17PM 30.9093 -132.7765 251° West 405 466 37,000  Level FlightAware Transoceanic
11:18PM 30.8707 -132.9048 251° West 405 466 37,000  Level FlightAware Transoceanic
11:19PM 30.7986 -133.1437 251° West 413 475 37,000  Level FlightAware Transoceanic
11:20PM 30.7603 -133.2696 250° West 413 475 37,000  Level FlightAware Transoceanic
11:21PM 30.7220 -133.3953 250° West 413 475 37,000  Level FlightAware Transoceanic
11:22PM 30.6835 -133.5210 250° West 413 475 37,000  Level FlightAware Transoceanic
11:23PM 30.6449 -133.6465 250° West 413 475 37,000  Level FlightAware Transoceanic
11:24PM 30.6062 -133.7720 250° West 413 475 37,000  Level FlightAware Transoceanic
11:25PM 30.5674 -133.8973 250° West 413 475 37,000  Level FlightAware Transoceanic
11:26PM 30.5284 -134.0226 250° West 413 475 37,000  Level FlightAware Transoceanic
11:27PM 30.4893 -134.1477 250° West 413 475 37,000  Level FlightAware Transoceanic
11:28PM 30.4502 -134.2728 250° West 413 475 37,000  Level FlightAware Transoceanic
11:29PM 30.4109 -134.3977 250° West 413 475 37,000  Level FlightAware Transoceanic
11:30PM 30.3714 -134.5226 250° West 413 475 37,000  Level FlightAware Transoceanic
11:31PM 30.3319 -134.6473 250° West 413 475 37,000  Level FlightAware Transoceanic
11:32PM 30.2922 -134.7720 250° West 413 475 37,000  Level FlightAware Transoceanic
11:33PM 30.2524 -134.8965 250° West 413 475 37,000  Level FlightAware Transoceanic
11:34PM 30.2125 -135.0209 250° West 413 475 37,000  Level FlightAware Transoceanic
11:35PM 30.1725 -135.1453 250° West 413 475 37,000  Level FlightAware Transoceanic
11:36PM 30.1324 -135.2695 249° West 413 475 37,000  Level FlightAware Transoceanic
11:37PM 30.0921 -135.3937 249° West 413 475 37,000  Level FlightAware Transoceanic
11:38PM 30.0517 -135.5177 249° West 413 475 37,000  Level FlightAware Transoceanic
11:39PM 30.0112 -135.6416 249° West 413 475 37,000  Level FlightAware Transoceanic
11:40PM 29.9706 -135.7655 249° West 413 475 37,000  Level FlightAware Transoceanic
11:41PM 29.9299 -135.8892 249° West 413 475 37,000  Level FlightAware Transoceanic
11:42PM 29.8891 -136.0128 249° West 413 475 37,000  Level FlightAware Transoceanic
11:43PM 29.8481 -136.1364 249° West 413 475 37,000  Level FlightAware Transoceanic
11:44PM 29.8071 -136.2598 249° West 413 475 37,000  Level FlightAware Transoceanic
11:45PM 29.7659 -136.3831 249° West 413 475 37,000  Level FlightAware Transoceanic
11:46PM 29.7246 -136.5064 249° West 413 475 37,000  Level FlightAware Transoceanic
11:47PM 29.6832 -136.6295 249° West 413 475 37,000  Level FlightAware Transoceanic
11:48PM 29.6417 -136.7525 249° West 413 475 37,000  Level FlightAware Transoceanic
11:49PM 29.6000 -136.8754 249° West 413 475 37,000  Level FlightAware Transoceanic
11:50PM 29.5583 -136.9983 249° West 413 475 37,000  Level FlightAware Transoceanic
11:51PM 29.5164 -137.1210 249° West 413 475 37,000  Level FlightAware Transoceanic
11:52PM 29.4744 -137.2436 249° West 413 475 37,000  Level FlightAware Transoceanic
11:53PM 29.4324 -137.3661 248° West 413 475 37,000  Level FlightAware Transoceanic
11:54PM 29.3902 -137.4885 248° West 413 475 37,000  Level FlightAware Transoceanic
11:55PM 29.3479 -137.6108 248° West 413 475 37,000  Level FlightAware Transoceanic
11:56PM 29.3054 -137.7330 248° West 413 475 37,000  Level FlightAware Transoceanic
11:57PM 29.2629 -137.8552 248° West 413 475 37,000  Level FlightAware Transoceanic
11:58PM 29.2203 -137.9772 248° West 413 475 37,000  Level FlightAware Transoceanic
11:59PM 29.1775 -138.0991 248° West 413 475 37,000  Level FlightAware Transoceanic
12:00AM 29.1346 -138.2209 248° West 413 475 37,000  Level FlightAware Transoceanic
12:01AM 29.0917 -138.3426 248° West 413 475 37,000  Level FlightAware Transoceanic
12:02AM 29.0486 -138.4642 248° West 413 475 37,000  Level FlightAware Transoceanic
12:03AM 29.0054 -138.5857 248° West 413 475 37,000  Level FlightAware Transoceanic
12:04AM 28.9621 -138.7071 248° West 413 475 37,000  Level FlightAware Transoceanic
12:05AM 28.9187 -138.8284 248° West 413 475 37,000  Level FlightAware Transoceanic
12:06AM 28.8752 -138.9496 248° West 413 475 37,000  Level FlightAware Transoceanic
12:07AM 28.8315 -139.0707 248° West 413 475 37,000  Level FlightAware Transoceanic
12:08AM 28.7878 -139.1917 248° West 413 475 37,000  Level FlightAware Transoceanic
12:09AM 28.7439 -139.3125 247° West 413 475 37,000  Level FlightAware Transoceanic
12:10AM 28.7000 -139.4333 247° West 413 475 37,000  Level FlightAware Transoceanic
12:11AM 28.6555 -139.5543 247° West 413 475 37,000  Level FlightAware Transoceanic
12:12AM 28.6109 -139.6752 247° West 413 475 37,000  Level FlightAware Transoceanic
12:13AM 28.5662 -139.7960 247° West 413 475 37,000  Level FlightAware Transoceanic
12:14AM 28.5213 -139.9166 247° West 413 475 37,000  Level FlightAware Transoceanic
12:14AM 28.7000 -139.4333 247° West 415 478 37,000  Level Oakland Oceanic (ODAPS)
12:15AM 28.4764 -140.0372 247° West 413 475 37,000  Level FlightAware Transoceanic
12:16AM 28.4313 -140.1577 247° West 413 475 37,000  Level FlightAware Transoceanic
12:17AM 28.3862 -140.2780 247° West 413 475 37,000  Level FlightAware Transoceanic
12:18AM 28.3409 -140.3983 247° West 413 475 37,000  Level FlightAware Transoceanic
12:19AM 28.2956 -140.5184 247° West 413 475 37,000  Level FlightAware Transoceanic
12:20AM 28.2501 -140.6385 247° West 413 475 37,000  Level FlightAware Transoceanic
12:21AM 28.2501 -140.6385 247° West 415 478 37,000  Level FlightAware Transoceanic
12:22AM 28.2045 -140.7585 247° West 415 478 37,000  Level FlightAware Transoceanic
12:23AM 28.1589 -140.8783 247° West 415 478 37,000  Level FlightAware Transoceanic
12:24AM 28.1131 -140.9980 247° West 415 478 37,000  Level FlightAware Transoceanic
12:25AM 28.0672 -141.1177 246° West 415 478 37,000  Level FlightAware Transoceanic
12:26AM 28.0212 -141.2372 246° West 415 478 37,000  Level FlightAware Transoceanic
12:27AM 27.9751 -141.3567 246° West 415 478 37,000  Level FlightAware Transoceanic
12:28AM 27.9289 -141.4760 246° West 415 478 37,000  Level FlightAware Transoceanic
12:29AM 27.8826 -141.5952 246° West 415 478 37,000  Level FlightAware Transoceanic
12:30AM 27.8362 -141.7144 246° West 415 478 37,000  Level FlightAware Transoceanic
12:31AM 27.7897 -141.8334 246° West 415 478 37,000  Level FlightAware Transoceanic
12:32AM 27.7431 -141.9523 246° West 415 478 37,000  Level FlightAware Transoceanic
12:33AM 27.6964 -142.0712 246° West 415 478 37,000  Level FlightAware Transoceanic
12:34AM 27.6496 -142.1899 246° West 415 478 37,000  Level FlightAware Transoceanic
12:35AM 27.6027 -142.3085 246° West 415 478 37,000  Level FlightAware Transoceanic
12:36AM 27.5557 -142.4270 246° West 415 478 37,000  Level FlightAware Transoceanic
12:37AM 27.5086 -142.5455 246° West 415 478 37,000  Level FlightAware Transoceanic
12:38AM 27.4614 -142.6638 246° West 415 478 37,000  Level FlightAware Transoceanic
12:39AM 27.4141 -142.7820 246° West 415 478 37,000  Level FlightAware Transoceanic
12:40AM 27.3667 -142.9001 246° West 415 478 37,000  Level FlightAware Transoceanic
12:41AM 27.3192 -143.0181 246° West 415 478 37,000  Level FlightAware Transoceanic
12:42AM 27.2716 -143.1361 246° West 415 478 37,000  Level FlightAware Transoceanic
12:43AM 27.2239 -143.2539 245° Southwest 415 478 37,000  Level FlightAware Transoceanic
12:44AM 27.1761 -143.3716 245° Southwest 415 478 37,000  Level FlightAware Transoceanic
12:45AM 27.1282 -143.4892 245° Southwest 415 478 37,000  Level FlightAware Transoceanic
12:46AM 27.0802 -143.6067 245° Southwest 415 478 37,000  Level FlightAware Transoceanic
12:47AM 27.0321 -143.7241 245° Southwest 415 478 37,000  Level FlightAware Transoceanic
12:48AM 26.9839 -143.8414 245° Southwest 415 478 37,000  Level FlightAware Transoceanic
12:49AM 26.9356 -143.9586 245° Southwest 415 478 37,000  Level FlightAware Transoceanic
12:50AM 26.8872 -144.0758 245° Southwest 415 478 37,000  Level FlightAware Transoceanic
12:51AM 26.8387 -144.1928 245° Southwest 415 478 37,000  Level FlightAware Transoceanic
12:52AM 26.7901 -144.3097 245° Southwest 415 478 37,000  Level FlightAware Transoceanic
12:53AM 26.7415 -144.4265 245° Southwest 415 478 37,000  Level FlightAware Transoceanic
12:54AM 26.6927 -144.5432 245° Southwest 415 478 37,000  Level FlightAware Transoceanic
12:55AM 26.6438 -144.6598 245° Southwest 415 478 37,000  Level FlightAware Transoceanic
12:56AM 26.5949 -144.7763 245° Southwest 415 478 37,000  Level FlightAware Transoceanic
12:57AM 26.5458 -144.8927 245° Southwest 415 478 37,000  Level FlightAware Transoceanic
12:58AM 26.4967 -145.0090 245° Southwest 415 478 37,000  Level FlightAware Transoceanic
12:59AM 26.4474 -145.1252 245° Southwest 415 478 37,000  Level FlightAware Transoceanic
01:00AM 26.3981 -145.2413 245° Southwest 415 478 37,000  Level FlightAware Transoceanic
01:01AM 26.3486 -145.3574 245° Southwest 415 478 37,000  Level FlightAware Transoceanic
01:02AM 26.2991 -145.4733 244° Southwest 415 478 37,000  Level FlightAware Transoceanic
01:03AM 26.2495 -145.5891 244° Southwest 415 478 37,000  Level FlightAware Transoceanic
01:04AM 26.1998 -145.7048 244° Southwest 415 478 37,000  Level FlightAware Transoceanic
01:05AM 26.1500 -145.8204 244° Southwest 415 478 37,000  Level FlightAware Transoceanic
01:06AM 26.1001 -145.9359 244° Southwest 415 478 37,000  Level FlightAware Transoceanic
01:07AM 26.0501 -146.0513 244° Southwest 415 478 37,000  Level FlightAware Transoceanic
01:08AM 26.0000 -146.1667 244° Southwest 415 478 37,000  Level FlightAware Transoceanic
01:09AM 25.9492 -146.2840 244° Southwest 415 478 37,000  Level FlightAware Transoceanic
01:09AM 26.0000 -146.1667 244° Southwest 421 484 37,000  Level Oakland Oceanic (ODAPS)
01:10AM 25.8983 -146.4012 244° Southwest 415 478 37,000  Level FlightAware Transoceanic
01:11AM 25.8472 -146.5182 244° Southwest 415 478 37,000  Level FlightAware Transoceanic
01:12AM 25.7962 -146.6353 244° Southwest 415 478 37,000  Level FlightAware Transoceanic
01:13AM 25.7449 -146.7521 244° Southwest 415 478 37,000  Level FlightAware Transoceanic
01:14AM 25.6937 -146.8689 244° Southwest 415 478 37,000  Level FlightAware Transoceanic
01:15AM 25.6423 -146.9856 244° Southwest 421 484 37,000  Level FlightAware Transoceanic
01:16AM 25.5908 -147.1022 244° Southwest 421 484 37,000  Level FlightAware Transoceanic
01:17AM 25.5392 -147.2187 244° Southwest 421 484 37,000  Level FlightAware Transoceanic
01:18AM 25.4876 -147.3351 244° Southwest 421 484 37,000  Level FlightAware Transoceanic
01:19AM 25.4358 -147.4514 244° Southwest 421 484 37,000  Level FlightAware Transoceanic
01:20AM 25.3840 -147.5676 244° Southwest 421 484 37,000  Level FlightAware Transoceanic
01:21AM 25.3320 -147.6837 244° Southwest 421 484 37,000  Level FlightAware Transoceanic
01:22AM 25.2800 -147.7997 244° Southwest 421 484 37,000  Level FlightAware Transoceanic
01:23AM 25.2279 -147.9155 244° Southwest 421 484 37,000  Level FlightAware Transoceanic
01:24AM 25.1757 -148.0313 243° Southwest 421 484 37,000  Level FlightAware Transoceanic
01:25AM 25.1234 -148.1470 243° Southwest 421 484 37,000  Level FlightAware Transoceanic
01:26AM 25.0710 -148.2626 243° Southwest 421 484 37,000  Level FlightAware Transoceanic
01:27AM 25.0185 -148.3781 243° Southwest 421 484 37,000  Level FlightAware Transoceanic
01:28AM 24.9660 -148.4935 243° Southwest 421 484 37,000  Level FlightAware Transoceanic
01:29AM 24.9133 -148.6088 243° Southwest 421 484 37,000  Level FlightAware Transoceanic
01:30AM 24.8606 -148.7240 243° Southwest 421 484 37,000  Level FlightAware Transoceanic
01:31AM 24.8077 -148.8391 243° Southwest 421 484 37,000  Level FlightAware Transoceanic
01:32AM 24.7548 -148.9541 243° Southwest 421 484 37,000  Level FlightAware Transoceanic
01:33AM 24.7018 -149.0690 243° Southwest 421 484 37,000  Level FlightAware Transoceanic
01:34AM 24.6487 -149.1838 243° Southwest 421 484 37,000  Level FlightAware Transoceanic
01:35AM 24.5955 -149.2985 243° Southwest 421 484 37,000  Level FlightAware Transoceanic
01:36AM 24.5423 -149.4131 243° Southwest 421 484 37,000  Level FlightAware Transoceanic
01:37AM 24.4889 -149.5276 243° Southwest 421 484 37,000  Level FlightAware Transoceanic
01:38AM 24.4355 -149.6421 243° Southwest 421 484 37,000  Level FlightAware Transoceanic
01:39AM 24.3820 -149.7564 243° Southwest 421 484 37,000  Level FlightAware Transoceanic
01:40AM 24.3283 -149.8706 243° Southwest 421 484 37,000  Level FlightAware Transoceanic
01:41AM 24.2746 -149.9847 243° Southwest 421 484 37,000  Level FlightAware Transoceanic
01:42AM 24.2208 -150.0988 243° Southwest 421 484 37,000  Level FlightAware Transoceanic
01:43AM 24.1670 -150.2127 243° Southwest 421 484 37,000  Level FlightAware Transoceanic
01:44AM 24.1130 -150.3265 243° Southwest 421 484 37,000  Level FlightAware Transoceanic
01:45AM 24.0590 -150.4403 242° Southwest 421 484 37,000  Level FlightAware Transoceanic
01:46AM 24.0049 -150.5539 242° Southwest 421 484 37,000  Level FlightAware Transoceanic
01:47AM 23.9507 -150.6675 242° Southwest 421 484 37,000  Level FlightAware Transoceanic
01:48AM 23.8964 -150.7809 242° Southwest 421 484 37,000  Level FlightAware Transoceanic
01:49AM 23.8420 -150.8943 242° Southwest 421 484 37,000  Level FlightAware Transoceanic
01:50AM 23.7876 -151.0075 242° Southwest 421 484 37,000  Level FlightAware Transoceanic
01:51AM 23.7330 -151.1207 242° Southwest 421 484 37,000  Level FlightAware Transoceanic
01:52AM 23.6784 -151.2338 242° Southwest 421 484 37,000  Level FlightAware Transoceanic
01:53AM 23.6237 -151.3468 242° Southwest 421 484 37,000  Level FlightAware Transoceanic
01:54AM 23.5689 -151.4596 242° Southwest 421 484 37,000  Level FlightAware Transoceanic
01:55AM 23.5141 -151.5724 242° Southwest 421 484 37,000  Level FlightAware Transoceanic
01:56AM 23.4591 -151.6851 242° Southwest 421 484 37,000  Level FlightAware Transoceanic
01:57AM 23.4041 -151.7977 242° Southwest 421 484 37,000  Level FlightAware Transoceanic
01:58AM 23.3490 -151.9102 242° Southwest 421 484 37,000  Level FlightAware Transoceanic
01:59AM 23.2938 -152.0226 242° Southwest 421 484 37,000  Level FlightAware Transoceanic
02:00AM 23.2385 -152.1350 242° Southwest 421 484 37,000  Level FlightAware Transoceanic
02:01AM 23.1832 -152.2472 242° Southwest 421 484 37,000  Level FlightAware Transoceanic
02:02AM 23.1278 -152.3593 242° Southwest 421 484 37,000  Level FlightAware Transoceanic
02:03AM 23.0723 -152.4714 242° Southwest 421 484 37,000  Level FlightAware Transoceanic
02:04AM 23.0167 -152.5833 242° Southwest 421 484 37,000  Level FlightAware Transoceanic
02:04AM 22.9833 -152.6500 242° Southwest 430 495 37,000  Level Honolulu Center
02:05AM 22.9580 -152.7020 242° Southwest 421 484 37,000  Level FlightAware Transoceanic
02:05AM 22.9167 -152.7500 234° Southwest 420 483 37,000  Level Honolulu Center
02:06AM 22.8993 -152.8206 242° Southwest 421 484 37,000  Level FlightAware Transoceanic
02:06AM 22.8667 -152.8667 245° Southwest 420 483 37,000  Level Honolulu Center
02:07AM 22.8404 -152.9391 242° Southwest 421 484 37,000  Level FlightAware Transoceanic
02:07AM 22.8167 -152.9833 245° Southwest 420 483 37,000  Level Honolulu Center
02:08AM 22.7815 -153.0575 242° Southwest 421 484 37,000  Level FlightAware Transoceanic
02:08AM 22.7667 -153.1000 245° Southwest 420 483 37,000  Level Honolulu Center
02:09AM 22.7225 -153.1758 242° Southwest 421 484 37,000  Level FlightAware Transoceanic
02:09AM 22.7333 -153.2333 255° West 430 495 37,000  Level Honolulu Center
02:10AM 22.6634 -153.2939 242° Southwest 421 484 37,000  Level FlightAware Transoceanic
02:10AM 22.7000 -153.3500 253° West 430 495 37,000  Level Honolulu Center
02:11AM 22.6667 -153.4667 253° West 430 495 37,000  Level Honolulu Center
02:12AM 22.6167 -153.6000 248° West 430 495 37,000  Level Honolulu Center
02:13AM 22.5833 -153.7167 253° West 430 495 37,000  Level Honolulu Center
02:14AM 22.5500 -153.8500 255° West 430 495 37,000  Level Honolulu Center
02:15AM 22.5167 -153.9667 253° West 430 495 37,000  Level Honolulu Center
02:16AM 22.4833 -154.1000 255° West 430 495 37,000  Level Honolulu Center
02:17AM 22.4500 -154.2167 253° West 430 495 37,000  Level Honolulu Center
02:18AM 22.4000 -154.3333 245° Southwest 430 495 37,000  Level Honolulu Center
02:19AM 22.3667 -154.4667 255° West 430 495 37,000  Level Honolulu Center
02:20AM 22.3333 -154.5833 253° West 430 495 37,000  Level Honolulu Center
02:21AM 22.3000 -154.7000 253° West 430 495 37,000  Level Honolulu Center
02:22AM 22.2500 -154.8167 245° Southwest 430 495 37,000  Level Honolulu Center
02:23AM 22.2167 -154.9500 255° West 420 483 37,000  Level Honolulu Center
02:24AM 22.1833 -155.0667 253° West 430 495 37,000  Level Honolulu Center
02:25AM 22.1500 -155.1833 253° West 430 495 37,000  Level Honolulu Center
02:26AM 22.1000 -155.3167 248° West 420 483 37,000  Level Honolulu Center
02:27AM 22.0667 -155.4333 253° West 430 495 37,000  Level Honolulu Center
02:28AM 22.0333 -155.5500 253° West 420 483 37,000  Level Honolulu Center
02:29AM 22.0000 -155.6667 253° West 430 495 37,000  Level Honolulu Center
02:30AM 21.9500 -155.8000 248° West 430 495 37,000  Level Honolulu Center
02:31AM 21.9167 -155.9167 253° West 430 495 37,000  Level Honolulu Center
02:32AM 21.8833 -156.0333 253° West 430 495 37,000  Level Honolulu Center
02:33AM 21.8333 -156.1500 245° Southwest 430 495 37,000 -1,633 Level Honolulu Center
02:35AM 21.7667 -156.4000 254° West 440 506 32,100 -2,567 Descending Honolulu Center
02:36AM 21.7167 -156.5333 248° West 450 518 29,300 -2,350 Descending Honolulu Center
02:37AM 21.6833 -156.6500 253° West 440 506 27,400 -2,139 Descending Honolulu Center
02:43AM 21.4670 -157.3590 253° West 385 443 14,400 -2,143 Descending FlightAware
02:44AM 21.4380 -157.4500 251° West 368 423 12,900 -1,807 Descending FlightAware
02:45AM 21.4190 -157.5090 251° West 359 413 11,900 -1,778 Descending FlightAware
02:46AM 21.3950 -157.5800 250° West 352 405 10,500 -1,690 Descending FlightAware
02:46AM 21.3790 -157.6280 250° West 348 400 9,900 -720 Descending FlightAware
02:46AM 21.3670 -157.6670 252° West 340 391 9,900 -237 Level FlightAware
02:47AM 21.3430 -157.7410 251° West 299 344 9,600 -623 Descending FlightAware
02:48AM 21.3320 -157.7720 249° West 294 338 9,100 -1,333 Descending FlightAware
02:48AM 21.3260 -157.7920 252° West 292 336 8,800 -1,800 Descending FlightAware
02:48AM 21.3090 -157.8310 245° Southwest 289 333 7,900 -2,000 Descending FlightAware
02:49AM 21.2970 -157.8480 233° Southwest 289 333 7,300 -2,341 Descending FlightAware
02:49AM 21.2780 -157.8750 233° Southwest 287 330 6,300 -1,459 Descending FlightAware
02:50AM 21.2430 -157.9230 232° Southwest 285 328 5,500 -2,414 Descending FlightAware
02:51AM 21.2000 -157.9500 232° Southwest 280 322 2,800 -4,154 Descending Honolulu Center

Login

Don't have an account? Register now (free) for customized features, flight alerts, and more!